METAR Data
IDs: Format: Raw Decoded Include TAF

Data at: 0725 UTC 08 May 2021

KCWF 080715Z AUTO 00000KT 10SM CLR 17/16 A3007 RMK AO2 T01710159
KCWF 080655Z AUTO 00000KT 10SM CLR 17/16 A3007 RMK AO2 T01750164
KCWF 080635Z AUTO 00000KT 10SM CLR 18/17 A3008 RMK AO2 T01850166
KCWF 080615Z AUTO 08003KT 10SM CLR 19/17 A3008 RMK AO2 T01930169
KCWF 080555Z AUTO 00000KT 10SM CLR 19/17 A3008 RMK AO2 T01930168 10268 20175
KCWF 080535Z AUTO 00000KT 10SM CLR 19/17 A3008 RMK AO2 T01860169
KCWF 080515Z AUTO 16003KT 10SM CLR 18/16 A3007 RMK AO2 T01830163
KCWF 080455Z AUTO 00000KT 10SM CLR 19/16 A3007 RMK AO2 T01900164
KCWF 080435Z AUTO 19004KT 10SM CLR 20/17 A3007 RMK AO2 T01960166
KCWF 080415Z AUTO 16005KT 10SM CLR 18/16 A3006 RMK AO2 T01840160
KCWF 080355Z AUTO 16005KT 10SM CLR 19/16 A3006 RMK AO2 T01860161
KCWF 080335Z AUTO 16006KT 10SM CLR 19/16 A3006 RMK AO2 T01870161
KCWF 080315Z AUTO 16004KT 10SM CLR 19/16 A3006 RMK AO2 T01920161
KCWF 080250Z 17004KT 10SM SKC 19/16 A3007 RMK LAST
KCWF 080150Z 21007KT 10SM SKC 24/16 A3005
KCWF 080050Z 21007KT 10SM SKC 25/16 A3006
KCWF 072350Z 17007KT 10SM SKC 26/13 A3006
KCWF 072250Z 10003KT 10SM SKC 29/11 A3007
KCWF 072150Z 14003KT 10SM SKC 29/11 A3013
KCWF 072050Z 14005KT 10SM SKC 29/11 A3011
KCWF 071955Z COR 14008KT 10SM SKC 28/11 A3013
KCWF 071850Z 08007KT 10SM SKC 28/12 A3016
KCWF 071755Z VRB03KT 10SM SKC 28/13 A3017
KCWF 071654Z 05006KT 10SM SKC 27/12 A3019
KCWF 071550Z 05005KT 10SM SKC 25/13 A3020
KCWF 071451Z 03007KT 10SM SKC 23/13 A3020
KCWF 071345Z 3607KT 10SM SKC 22/14 A3020
KCWF 071250Z 00000KT 10SM SKC 19/15 A3018
KCWF 071145Z 00000KT 10SM SKC 16/13 A3015
KCWF 071100Z 00000KT 10SM SKC 16/14 A3014
KCWF 071035Z AUTO 00000KT 10SM CLR 16/14 A3014 RMK AO2 T01610140
KCWF 071015Z AUTO 00000KT 10SM CLR 16/14 A3014 RMK AO2 T01590140
KCWF 070955Z AUTO 00000KT 10SM CLR 16/14 A3013 RMK AO2 T01640142
KCWF 070935Z AUTO 00000KT 10SM CLR 17/14 A3014 RMK AO2 T01650141
KCWF 070915Z AUTO 00000KT 10SM CLR 17/14 A3014 RMK AO2 T01670144
KCWF 070855Z AUTO 00000KT 10SM CLR 17/14 A3013 RMK AO2 T01670143
KCWF 070835Z AUTO 00000KT 10SM CLR 16/14 A3013 RMK AO2 T01640142
KCWF 070815Z AUTO 00000KT 10SM CLR 17/14 A3013 RMK AO2 T01720145
KCWF 070755Z AUTO 00000KT 10SM CLR 17/15 A3013 RMK AO2 T01710145
KCWF 070735Z AUTO 00000KT 10SM CLR 17/15 A3013 RMK AO2 T01690145
KCWF 070715Z AUTO 00000KT 10SM CLR 17/15 A3014 RMK AO2 T01740148
KCWF 070655Z AUTO 00000KT 10SM CLR 17/15 A3014 RMK AO2 T01720146
KCWF 070635Z AUTO 00000KT 10SM CLR 18/15 A3014 RMK AO2 T01780148
KCWF 070615Z AUTO 00000KT 10SM CLR 18/15 A3014 RMK AO2 T01800147
KCWF 070555Z AUTO 00000KT 10SM CLR 18/15 A3014 RMK AO2 T01810148 10265 20176
KCWF 070535Z AUTO 33003KT 10SM CLR 18/15 A3014 RMK AO2 T01770146
KCWF 070515Z AUTO 32003KT 10SM CLR 18/15 A3015 RMK AO2 T01850147
KCWF 070455Z AUTO 34003KT 10SM CLR 19/15 A3014 RMK AO2 T01890148
KCWF 070435Z AUTO 00000KT 10SM CLR 19/15 A3015 RMK AO2 T01950147
KCWF 070415Z AUTO 00000KT 10SM CLR 19/14 A3015 RMK AO2 T01910144
KCWF 070355Z AUTO 00000KT 10SM CLR 20/14 A3015 RMK AO2 T01990144
KCWF 070335Z AUTO 00000KT 10SM CLR 19/14 A3014 RMK AO2 T01880139
KCWF 070315Z AUTO 00000KT 10SM CLR 20/14 A3014 RMK AO2 T02000138
KCWF 070250Z 07003KT 10SM SKC 21/14 A3013 RMK LAST
KCWF 070150Z 08004KT 10SM SKC 22/14 A3011
KCWF 070050Z 03003KT 10SM SKC 25/11 A3010
KCWF 062350Z 02007KT 10SM SKC 27/10 A3009
KCWF 062250Z 04007KT 10SM SKC 28/09 A3009
KCWF 062150Z 03009KT 10SM SKC 28/09 A3010
KCWF 062050Z 06011KT 10SM SKC 28/10 A3012
KCWF 061950Z 04006KT 10SM SKC 27/09 A3013